Time;durP1;ratioP1;P1;durP2;ratioP2;P2;SDS_P1;SDS_P2;PMS_P1;PMS_P2;Temp;Humidity;BMP_temperature;BMP_pressure;BME280_temperature;BME280_humidity;BME280_pressure;Samples;Min_cycle;Max_cycle;Signal;HPM_P1;HPM_P2
2022/10/07 00:01:47;;;;;;;;;;;;;;;9.07;100.00;100870.28;4982784;28;20040;-93
2022/10/07 00:04:13;;;;;;;;;;;;;;;9.07;100.00;100864.13;4990015;28;19917;-93
2022/10/07 00:06:38;;;;;;;;;;;;;;;9.08;100.00;100874.69;4994351;28;19922;-91
2022/10/07 00:09:04;;;;;;;;;;;;;;;9.04;100.00;100872.97;4980692;28;20344;-92
2022/10/07 00:11:29;;;;;;;;;;;;;;;9.07;100.00;100869.41;4987586;28;19918;-92
2022/10/07 00:13:58;;;;;;;;;;;;;;;9.05;100.00;100863.31;4985377;28;20301;-93
2022/10/07 03:31:44;;;;;;;;;;;;;;;8.94;100.00;100685.53;5257391;23;19949;-83
2022/10/07 03:34:09;;;;;;;;;;;;;;;8.95;100.00;100684.63;4993186;28;19922;-83
2022/10/07 03:36:35;;;;;;;;;;;;;;;8.97;100.00;100688.97;4993995;28;19922;-83
2022/10/07 03:39:00;;;;;;;;;;;;;;;8.97;100.00;100680.19;4976369;28;19918;-83
2022/10/07 03:41:25;;;;;;;;;;;;;;;8.91;100.00;100675.88;4993866;28;19918;-82
2022/10/07 03:43:51;;;;;;;;;;;;;;;8.97;100.00;100670.47;4994067;28;20272;-82
2022/10/07 03:46:18;;;;;;;;;;;;;;;8.89;100.00;100675.91;4992437;28;20369;-82
2022/10/07 03:48:43;;;;;;;;;;;;;;;8.89;100.00;100675.91;4993787;28;19922;-82
2022/10/07 03:51:08;;;;;;;;;;;;;;;8.88;100.00;100662.75;4993701;28;19973;-83
2022/10/07 03:53:36;;;;;;;;;;;;;;;8.92;100.00;100669.72;4993692;28;19965;-83
2022/10/07 03:56:01;;;;;;;;;;;;;;;9.03;100.00;100672.09;4992834;28;19918;-85
2022/10/07 03:58:26;;;;;;;;;;;;;;;8.97;100.00;100670.47;4993393;28;20268;-83
2022/10/07 04:01:02;;;;;;;;;;;;;;;9.01;100.00;100663.34;4992316;28;19924;-85
2022/10/07 04:03:27;;;;;;;;;;;;;;;8.91;100.00;100665.31;4975827;28;19921;-84
2022/10/07 04:05:59;;;;;;;;;;;;;;;8.89;100.00;100665.34;4993595;28;20489;-85
2022/10/07 04:08:26;;;;;;;;;;;;;;;8.90;100.00;100661.81;4992653;28;19929;-85
2022/10/07 04:10:52;;;;;;;;;;;;;;;8.94;100.00;100664.41;4975798;28;19917;-90
2022/10/07 04:13:17;;;;;;;;;;;;;;;8.89;100.00;100665.34;4975615;28;20341;-85
2022/10/07 04:15:42;;;;;;;;;;;;;;;8.89;100.00;100667.13;4992059;28;19920;-85
2022/10/07 04:18:08;;;;;;;;;;;;;;;8.94;100.00;100656.47;4975636;28;19925;-85
2022/10/07 04:20:36;;;;;;;;;;;;;;;8.97;100.00;100656.41;4993305;28;19964;-85
2022/10/07 04:23:01;;;;;;;;;;;;;;;8.90;100.00;100663.56;4993358;28;20383;-85
2022/10/07 04:25:32;;;;;;;;;;;;;;;8.91;100.00;100649.47;4992986;28;19922;-85
2022/10/07 04:27:58;;;;;;;;;;;;;;;8.86;100.00;100649.56;4992762;28;19922;-84
2022/10/07 04:30:24;;;;;;;;;;;;;;;8.84;100.00;100653.13;4990904;28;20021;-83
2022/10/07 04:32:52;;;;;;;;;;;;;;;8.82;100.00;100647.91;4992935;28;19976;-87
2022/10/07 04:35:21;;;;;;;;;;;;;;;8.86;100.00;100649.56;4992755;28;19922;-83
2022/10/07 04:37:50;;;;;;;;;;;;;;;8.84;100.00;100646.09;4992602;28;20309;-84
2022/10/07 07:44:25;;;;;;;;;;;;;;;8.91;100.00;100589.53;5148282;23;19926;-85
2022/10/07 07:46:50;;;;;;;;;;;;;;;8.88;100.00;100589.59;5012435;28;19925;-83
2022/10/07 07:49:16;;;;;;;;;;;;;;;8.91;100.00;100592.16;5013484;28;20288;-90
2022/10/07 07:51:42;;;;;;;;;;;;;;;8.87;100.00;100585.25;5005262;28;19918;-91
2022/10/07 07:54:08;;;;;;;;;;;;;;;8.87;100.00;100590.53;5014133;28;20507;-89
2022/10/07 07:56:33;;;;;;;;;;;;;;;8.88;100.00;100592.25;4996741;28;19918;-88
2022/10/07 07:58:59;;;;;;;;;;;;;;;8.88;100.00;100586.97;4996024;28;19928;-92
2022/10/07 08:01:24;;;;;;;;;;;;;;;8.88;100.00;100583.44;5013653;28;19967;-93
2022/10/07 08:03:50;;;;;;;;;;;;;;;8.91;100.00;100586.88;5015987;28;19972;-93
2022/10/07 08:06:16;;;;;;;;;;;;;;;8.91;100.00;100586.88;4995356;28;19918;-92
2022/10/07 08:08:42;;;;;;;;;;;;;;;8.89;100.00;100580.78;5015990;28;19917;-92
2022/10/07 08:11:11;;;;;;;;;;;;;;;8.89;100.00;100586.06;4993746;28;19917;-90
2022/10/07 08:13:40;;;;;;;;;;;;;;;8.96;100.00;100585.94;4992967;28;19928;-92
2022/10/07 08:16:11;;;;;;;;;;;;;;;8.95;100.00;100576.25;5013252;28;19921;-87
2022/10/07 08:18:37;;;;;;;;;;;;;;;8.93;100.00;100584.22;4993967;28;20008;-93
2022/10/07 08:21:04;;;;;;;;;;;;;;;8.89;100.00;100582.56;4990536;28;20060;-90
2022/10/07 08:23:29;;;;;;;;;;;;;;;8.93;100.00;100576.28;5013415;28;19976;-90
2022/10/07 08:25:55;;;;;;;;;;;;;;;8.99;100.00;100576.13;4992210;28;19922;-93
2022/10/07 08:28:21;;;;;;;;;;;;;;;8.94;100.00;100571.88;5012315;28;19929;-87
2022/10/07 08:30:46;;;;;;;;;;;;;;;8.96;100.00;100580.63;4996222;28;19922;-84
2022/10/07 08:33:12;;;;;;;;;;;;;;;8.94;100.00;100577.16;5011937;28;19961;-82
2022/10/07 08:35:37;;;;;;;;;;;;;;;8.93;100.00;100578.06;4994850;28;19921;-93
2022/10/07 08:38:02;;;;;;;;;;;;;;;8.93;100.00;100573.63;5013152;28;20375;-87
2022/10/07 08:40:27;;;;;;;;;;;;;;;8.97;100.00;100564.75;5012838;28;20448;-89
2022/10/07 08:42:53;;;;;;;;;;;;;;;9.03;100.00;100567.25;4989633;28;19944;-89
2022/10/07 08:45:28;;;;;;;;;;;;;;;8.99;100.00;100560.28;4993289;28;19965;-92
2022/10/07 08:47:55;;;;;;;;;;;;;;;9.01;100.00;100560.25;4993882;28;19923;-86
2022/10/07 08:50:38;;;;;;;;;;;;;;;8.99;100.00;100552.34;5012587;28;19918;-90
2022/10/07 08:53:07;;;;;;;;;;;;;;;9.01;100.00;100545.25;4994640;28;19917;-89
2022/10/07 08:55:39;;;;;;;;;;;;;;;9.04;100.00;100547.81;4994587;28;19917;-89
2022/10/07 08:58:05;;;;;;;;;;;;;;;9.03;100.00;100539.91;4992628;28;19928;-88
2022/10/07 09:00:38;;;;;;;;;;;;;;;9.02;100.00;100528.47;5002441;28;19922;-87
2022/10/07 09:03:07;;;;;;;;;;;;;;;9.10;100.00;100533.59;4994526;28;19980;-87
2022/10/07 09:05:37;;;;;;;;;;;;;;;9.05;100.00;100530.19;4994422;28;19925;-86
2022/10/07 09:08:05;;;;;;;;;;;;;;;9.07;100.00;100525.72;4994394;28;19976;-86
2022/10/07 09:10:35;;;;;;;;;;;;;;;9.06;100.00;100519.59;5012317;28;20047;-90
2022/10/07 09:13:12;;;;;;;;;;;;;;;9.06;100.00;100518.69;4992482;28;19972;-88
2022/10/07 09:15:48;;;;;;;;;;;;;;;9.05;100.00;100517.84;4993933;28;19948;-87
2022/10/07 09:18:23;;;;;;;;;;;;;;;9.03;100.00;100518.75;4989747;28;19925;-84
2022/10/07 09:20:52;;;;;;;;;;;;;;;9.04;100.00;100516.09;4993998;28;19919;-86
2022/10/07 09:23:20;;;;;;;;;;;;;;;9.07;100.00;100518.66;5009062;28;19922;-86
2022/10/07 09:25:45;;;;;;;;;;;;;;;9.11;100.00;100516.81;5010809;28;20369;-88
2022/10/07 09:28:12;;;;;;;;;;;;;;;9.11;100.00;100506.25;5012564;28;19919;-81
2022/10/07 09:30:37;;;;;;;;;;;;;;;9.18;100.00;100507.81;5014938;28;19921;-88
2022/10/07 09:33:08;;;;;;;;;;;;;;;9.11;100.00;100503.59;5001560;28;19943;-90
2022/10/07 09:35:34;;;;;;;;;;;;;;;9.10;100.00;100504.50;5013948;28;19976;-86
2022/10/07 09:37:59;;;;;;;;;;;;;;;9.12;100.00;100502.69;5012627;28;19925;-85
2022/10/07 09:40:32;;;;;;;;;;;;;;;9.14;100.00;100498.22;5003027;28;19924;-90
2022/10/07 09:42:58;;;;;;;;;;;;;;;9.14;100.00;100489.44;4996464;28;20403;-92
2022/10/07 09:45:30;;;;;;;;;;;;;;;9.16;100.00;100488.50;4994903;28;19973;-88
2022/10/07 09:47:57;;;;;;;;;;;;;;;9.17;100.00;100479.63;4993921;28;20570;-89
2022/10/07 09:50:31;;;;;;;;;;;;;;;9.21;100.00;100476.00;4978322;28;20483;-88
2022/10/07 09:52:56;;;;;;;;;;;;;;;9.17;100.00;100476.97;4978468;28;19924;-87
2022/10/07 09:55:37;;;;;;;;;;;;;;;9.17;100.00;100479.63;4996175;28;19922;-89
2022/10/07 09:58:04;;;;;;;;;;;;;;;9.17;100.00;100474.34;4994483;28;19917;-86
2022/10/07 10:00:29;;;;;;;;;;;;;;;9.20;100.00;100476.91;4977669;28;19928;-89
2022/10/07 10:03:05;;;;;;;;;;;;;;;9.18;100.00;100472.59;4978318;28;20355;-91
2022/10/07 10:05:35;;;;;;;;;;;;;;;9.18;100.00;100465.50;4977550;28;19921;-86
2022/10/07 10:08:26;;;;;;;;;;;;;;;9.20;100.00;100458.41;4995878;28;19921;-85
2022/10/07 10:10:57;;;;;;;;;;;;;;;9.23;100.00;100458.31;4973505;28;20360;-90
2022/10/07 10:13:27;;;;;;;;;;;;;;;9.28;100.00;100455.56;4976251;28;20079;-88
2022/10/07 10:15:52;;;;;;;;;;;;;;;9.19;100.00;100454.03;4985779;28;19926;-84
2022/10/07 10:18:20;;;;;;;;;;;;;;;9.21;100.00;100452.22;4978251;28;19918;-89
2022/10/07 10:20:46;;;;;;;;;;;;;;;9.24;100.00;100449.50;4978480;28;20344;-90
2022/10/07 10:23:43;;;;;;;;;;;;;;;9.24;100.00;100454.78;4978084;28;19968;-89
2022/10/07 10:26:28;;;;;;;;;;;;;;;9.39;100.00;100442.03;4957430;28;20253;-87
2022/10/07 10:29:12;;;;;;;;;;;;;;;9.22;100.00;100435.44;4976589;28;19917;-86
2022/10/07 10:31:47;;;;;;;;;;;;;;;9.26;100.00;100425.66;4995831;28;19918;-89
2022/10/07 10:34:18;;;;;;;;;;;;;;;9.26;100.00;100423.00;4986085;28;19918;-86
2022/10/07 10:36:48;;;;;;;;;;;;;;;9.29;100.00;100424.72;4985866;28;20385;-87
2022/10/07 10:39:32;;;;;;;;;;;;;;;9.25;100.00;100422.16;4977513;28;19918;-90
2022/10/07 10:42:01;;;;;;;;;;;;;;;9.29;100.00;100419.41;4994868;28;20069;-93
2022/10/07 10:44:38;;;;;;;;;;;;;;;9.32;100.00;100420.19;4976595;28;19926;-88
2022/10/07 10:47:16;;;;;;;;;;;;;;;9.30;100.00;100421.13;4978325;28;20266;-86
2022/10/07 10:49:44;;;;;;;;;;;;;;;9.32;100.00;100419.31;4973853;28;20016;-90
2022/10/07 10:52:09;;;;;;;;;;;;;;;9.32;100.00;100414.91;4993595;28;20385;-86
2022/10/07 10:54:42;;;;;;;;;;;;;;;9.32;100.00;100420.19;4977978;28;19993;-86
2022/10/07 10:57:11;;;;;;;;;;;;;;;9.30;100.00;100413.19;4995774;28;19967;-83
2022/10/07 10:59:37;;;;;;;;;;;;;;;9.33;100.00;100410.47;4976936;28;19922;-91
2022/10/07 11:02:21;;;;;;;;;;;;;;;9.48;100.00;100399.47;4977551;28;19925;-91
2022/10/07 11:04:55;;;;;;;;;;;;;;;9.39;100.00;100390.00;4977506;28;19921;-87
2022/10/07 11:07:23;;;;;;;;;;;;;;;9.34;100.00;100388.41;4986381;28;19917;-90
2022/10/07 11:09:56;;;;;;;;;;;;;;;9.40;100.00;100381.16;4988673;28;19925;-86
2022/10/07 11:12:21;;;;;;;;;;;;;;;9.35;100.00;100379.56;4975587;28;19925;-83
2022/10/07 11:14:50;;;;;;;;;;;;;;;9.40;100.00;100364.44;4992786;28;19921;-85
2022/10/07 11:17:16;;;;;;;;;;;;;;;9.33;100.00;100374.31;4991018;28;20843;-88
2022/10/07 11:19:46;;;;;;;;;;;;;;;9.38;100.00;100371.53;4975839;28;20020;-89
2022/10/07 11:22:14;;;;;;;;;;;;;;;9.39;100.00;100358.25;4992984;28;19929;-87
2022/10/07 11:24:43;;;;;;;;;;;;;;;9.36;100.00;100357.50;4989606;28;19976;-90
2022/10/07 11:27:15;;;;;;;;;;;;;;;9.41;100.00;100355.56;4988268;28;20427;-92
2022/10/07 11:29:50;;;;;;;;;;;;;;;9.39;100.00;100349.47;4975776;28;19921;-93
2022/10/07 11:32:25;;;;;;;;;;;;;;;9.39;100.00;100341.53;4973296;28;19928;-93
2022/10/07 11:34:56;;;;;;;;;;;;;;;9.40;100.00;100338.00;4989850;28;19926;-89
2022/10/07 11:37:27;;;;;;;;;;;;;;;9.48;100.00;100333.34;4991130;28;20033;-90
2022/10/07 11:39:52;;;;;;;;;;;;;;;9.48;100.00;100332.44;4989960;28;19937;-89
2022/10/07 11:42:18;;;;;;;;;;;;;;;9.40;100.00;100327.41;4972843;28;19929;-93
2022/10/07 11:45:01;;;;;;;;;;;;;;;9.43;100.00;100320.25;4976340;28;19965;-90
2022/10/07 11:47:31;;;;;;;;;;;;;;;9.41;100.00;100318.53;4991362;28;19956;-89
2022/10/07 11:50:01;;;;;;;;;;;;;;;9.40;100.00;100316.84;4987530;28;20008;-87
2022/10/07 11:52:29;;;;;;;;;;;;;;;9.41;100.00;100307.97;4986652;28;19922;-85
2022/10/07 11:54:58;;;;;;;;;;;;;;;9.43;100.00;100300.88;4974543;28;19964;-83
2022/10/07 11:57:24;;;;;;;;;;;;;;;9.40;100.00;100293.88;4989537;28;19945;-88
2022/10/07 11:59:56;;;;;;;;;;;;;;;9.46;100.00;100295.47;4990881;28;20021;-91
2022/10/07 12:02:28;;;;;;;;;;;;;;;9.55;100.00;100289.91;4975630;28;19948;-91
2022/10/07 12:05:02;;;;;;;;;;;;;;;9.57;100.00;100282.81;4972728;28;20011;-94
2022/10/07 12:07:33;;;;;;;;;;;;;;;9.49;100.00;100279.50;4975992;28;19922;-91
2022/10/07 12:09:59;;;;;;;;;;;;;;;9.53;100.00;100278.50;4987543;28;20064;-90
2022/10/07 12:12:44;;;;;;;;;;;;;;;9.56;100.00;100269.63;4991973;28;19968;-91
2022/10/07 12:15:42;;;;;;;;;;;;;;;9.64;100.00;100268.47;4993251;28;19929;-89
2022/10/07 12:18:09;;;;;;;;;;;;;;;9.53;100.00;100264.44;4949319;28;20393;-91
2022/10/07 12:20:36;;;;;;;;;;;;;;;9.53;100.00;100254.69;4975697;28;19961;-89
2022/10/07 12:23:20;;;;;;;;;;;;;;;9.57;100.00;100256.34;4975900;28;19922;-90
2022/10/07 12:25:52;;;;;;;;;;;;;;;9.68;100.00;100252.47;4975761;28;19953;-90
2022/10/07 12:28:26;;;;;;;;;;;;;;;9.50;100.00;100252.16;4974925;28;19925;-89
2022/10/07 12:30:53;;;;;;;;;;;;;;;9.51;100.00;100245.97;4993221;28;19976;-93
2022/10/07 12:33:33;;;;;;;;;;;;;;;9.51;100.00;100245.97;4975070;28;20131;-92
2022/10/07 12:35:58;;;;;;;;;;;;;;;9.48;100.00;100243.41;4975945;28;19925;-92
2022/10/07 12:38:29;;;;;;;;;;;;;;;9.51;100.00;100232.72;4975917;28;20269;-86
2022/10/07 12:41:10;;;;;;;;;;;;;;;9.46;100.00;100226.69;4993370;28;19953;-89
2022/10/07 12:43:35;;;;;;;;;;;;;;;9.51;100.00;100227.44;4990368;28;19921;-91
2022/10/07 12:46:05;;;;;;;;;;;;;;;9.53;100.00;100215.03;4975614;28;19922;-88
2022/10/07 12:48:33;;;;;;;;;;;;;;;9.63;100.00;100208.50;4975723;28;20293;-84
2022/10/07 12:51:00;;;;;;;;;;;;;;;9.53;100.00;100195.66;4985987;28;19918;-92
2022/10/07 12:53:26;;;;;;;;;;;;;;;9.52;100.00;100196.56;4975678;28;20012;-92
2022/10/07 12:55:53;;;;;;;;;;;;;;;9.45;100.00;100193.25;4975624;28;20010;-90
2022/10/07 13:01:28;;;;;;;;;;;;;;;9.66;100.00;100196.13;4993371;28;20297;-89
2022/10/07 13:04:13;;;;;;;;;;;;;;;9.49;100.00;100191.34;4992995;28;19945;-91
2022/10/07 13:06:59;;;;;;;;;;;;;;;9.64;100.00;100178.50;4991346;28;19977;-87
2022/10/07 13:09:57;;;;;;;;;;;;;;;9.64;100.00;100181.13;4974712;28;19921;-86
2022/10/07 13:12:29;;;;;;;;;;;;;;;9.58;100.00;100172.53;4949269;28;19921;-89
2022/10/07 13:15:13;;;;;;;;;;;;;;;9.58;100.00;100168.09;4974113;28;19922;-88
2022/10/07 13:17:45;;;;;;;;;;;;;;;9.68;100.00;100173.09;4992717;28;19928;-92
2022/10/07 13:20:40;;;;;;;;;;;;;;;9.55;100.00;100162.06;4970807;28;20411;-90
2022/10/07 13:23:11;;;;;;;;;;;;;;;9.70;100.00;100153.63;4959930;28;19929;-95
2022/10/07 13:25:41;;;;;;;;;;;;;;;9.55;100.00;100152.34;4992823;28;19929;-92
2022/10/07 13:28:12;;;;;;;;;;;;;;;9.48;100.00;100148.19;4990058;28;19922;-87
2022/10/07 13:30:40;;;;;;;;;;;;;;;9.62;100.00;100143.28;4990600;28;19918;-90
2022/10/07 13:33:17;;;;;;;;;;;;;;;9.59;100.00;100135.47;4975123;28;19921;-87
2022/10/07 13:35:42;;;;;;;;;;;;;;;9.55;100.00;100133.81;4983114;28;20003;-91
2022/10/07 13:38:20;;;;;;;;;;;;;;;9.59;100.00;100126.66;4974453;28;19922;-84
2022/10/07 13:40:51;;;;;;;;;;;;;;;9.59;100.00;100129.31;4974939;28;19949;-92
2022/10/07 13:43:16;;;;;;;;;;;;;;;9.73;100.00;100123.53;4990807;28;19929;-91
2022/10/07 13:45:43;;;;;;;;;;;;;;;9.65;100.00;100115.84;4992419;28;19921;-89
2022/10/07 13:48:15;;;;;;;;;;;;;;;9.65;100.00;100123.78;4992636;28;20000;-93
2022/10/07 13:50:42;;;;;;;;;;;;;;;9.62;100.00;100106.25;4974788;28;19925;-90
2022/10/07 13:53:15;;;;;;;;;;;;;;;9.63;100.00;100104.47;4975027;28;19922;-92
2022/10/07 13:55:44;;;;;;;;;;;;;;;9.64;100.00;100091.19;4974814;28;19921;-86
2022/10/07 13:58:09;;;;;;;;;;;;;;;9.57;100.00;100091.44;4991127;28;19922;-86
2022/10/07 14:00:41;;;;;;;;;;;;;;;9.64;100.00;100083.25;4985964;28;19940;-87
2022/10/07 14:03:16;;;;;;;;;;;;;;;9.62;100.00;100079.81;4974128;28;19965;-86
2022/10/07 14:05:47;;;;;;;;;;;;;;;9.75;100.00;100079.38;4983967;28;19918;-90
2022/10/07 14:08:16;;;;;;;;;;;;;;;9.74;100.00;100082.94;4969495;28;19936;-87
2022/10/07 14:11:01;;;;;;;;;;;;;;;9.59;100.00;100069.31;4973450;28;20254;-85
2022/10/07 14:13:27;;;;;;;;;;;;;;;10.43;100.00;100066.38;4990405;28;19914;-84
2022/10/07 14:15:54;;;;;;;;;;;;;;;10.78;100.00;100066.78;4995456;28;19925;-87
2022/10/07 14:18:22;;;;;;;;;;;;;;;10.09;100.00;100072.88;4995668;28;19928;-85
2022/10/07 14:20:48;;;;;;;;;;;;;;;10.06;100.00;100057.09;4976879;28;19917;-88
2022/10/07 14:23:19;;;;;;;;;;;;;;;9.81;100.00;100063.25;4977788;28;20274;-87
2022/10/07 14:25:47;;;;;;;;;;;;;;;9.90;100.00;100065.59;4995335;28;19917;-86
2022/10/07 14:28:16;;;;;;;;;;;;;;;9.74;100.00;100061.75;4994430;28;19921;-88
2022/10/07 14:36:22;;;;;;;;;;;;;;;9.70;100.00;100055.72;4994977;28;19925;-89
2022/10/07 14:38:50;;;;;;;;;;;;;;;9.82;100.00;100051.78;4975201;28;19918;-88
2022/10/07 14:41:17;;;;;;;;;;;;;;;9.69;100.00;100038.09;4992453;28;19917;-86
2022/10/07 14:43:44;;;;;;;;;;;;;;;9.83;100.00;100040.28;4975985;28;19914;-86
2022/10/07 14:46:14;;;;;;;;;;;;;;;9.70;100.00;100033.66;4989843;28;20381;-85
2022/10/07 14:48:39;;;;;;;;;;;;;;;9.79;100.00;100036.84;4966730;28;19922;-86
2022/10/07 14:51:07;;;;;;;;;;;;;;;9.69;100.00;100035.47;4985001;28;19925;-86
2022/10/07 14:53:34;;;;;;;;;;;;;;;9.69;100.00;100026.66;4968312;28;20012;-85
2022/10/07 14:56:02;;;;;;;;;;;;;;;9.68;100.00;100020.50;4967438;28;19933;-90
2022/10/07 14:58:28;;;;;;;;;;;;;;;9.63;100.00;100018.00;4966239;28;20277;-87
2022/10/07 15:00:53;;;;;;;;;;;;;;;9.67;100.00;100015.25;4984909;28;19922;-90
2022/10/07 15:03:18;;;;;;;;;;;;;;;9.96;100.00;100019.53;4967885;28;19968;-87
2022/10/07 15:05:44;;;;;;;;;;;;;;;9.87;100.00;100023.34;4967652;28;20190;-87
2022/10/07 15:08:10;;;;;;;;;;;;;;;9.71;100.00;100023.03;4967260;28;20350;-86
2022/10/07 15:10:37;;;;;;;;;;;;;;;10.77;100.00;100017.34;4967511;28;19929;-86
2022/10/07 15:13:04;;;;;;;;;;;;;;;10.12;100.00;100017.16;4984106;28;19922;-89
2022/10/07 15:15:31;;;;;;;;;;;;;;;9.92;100.00;100004.66;4967114;28;20020;-85
2022/10/07 15:17:59;;;;;;;;;;;;;;;9.89;100.00;100012.72;4967337;28;19922;-89
2022/10/07 15:20:24;;;;;;;;;;;;;;;9.78;100.00;100007.78;4984604;28;20370;-84
2022/10/07 15:22:50;;;;;;;;;;;;;;;9.91;100.00;100009.09;4967259;28;19918;-84
2022/10/07 15:25:16;;;;;;;;;;;;;;;9.82;100.00;100001.50;4963005;28;19918;-86
2022/10/07 15:27:42;;;;;;;;;;;;;;;9.83;100.00;100000.56;4982952;28;20012;-88
2022/10/07 15:30:07;;;;;;;;;;;;;;;9.81;100.00;100000.63;4967271;28;20017;-90
2022/10/07 15:32:33;;;;;;;;;;;;;;;9.76;100.00;99991.13;4966577;28;19957;-86
2022/10/07 15:34:58;;;;;;;;;;;;;;;9.94;100.00;99987.81;4966954;28;20178;-87
2022/10/07 15:37:26;;;;;;;;;;;;;;;9.84;100.00;99989.06;4966975;28;20395;-88
2022/10/07 15:39:51;;;;;;;;;;;;;;;10.86;100.00;99974.56;4966697;28;20369;-86
2022/10/07 15:42:17;;;;;;;;;;;;;;;10.18;100.00;99969.28;4982603;28;19918;-84
2022/10/07 15:44:43;;;;;;;;;;;;;;;9.95;100.00;99976.28;4984403;28;19928;-86
2022/10/07 15:47:10;;;;;;;;;;;;;;;9.90;100.00;99983.53;4966611;28;20064;-87
2022/10/07 15:49:35;;;;;;;;;;;;;;;9.94;100.00;99985.16;4966559;28;20303;-88
2022/10/07 15:52:01;;;;;;;;;;;;;;;9.84;100.00;99983.75;4966434;28;19918;-87
2022/10/07 15:54:26;;;;;;;;;;;;;;;9.93;100.00;99983.44;4984521;28;20049;-89
2022/10/07 15:56:52;;;;;;;;;;;;;;;9.86;100.00;99984.59;4984020;28;20017;-87
2022/10/07 15:59:17;;;;;;;;;;;;;;;9.80;100.00;99980.38;4982674;28;19918;-85
2022/10/07 16:01:43;;;;;;;;;;;;;;;9.79;100.00;99981.28;4965869;28;20353;-86
2022/10/07 16:04:10;;;;;;;;;;;;;;;9.77;100.00;99979.63;4984093;28;20012;-85
2022/10/07 16:06:35;;;;;;;;;;;;;;;9.73;100.00;99981.53;4987216;28;19919;-88
2022/10/07 16:09:01;;;;;;;;;;;;;;;9.79;100.00;99977.78;4965974;28;19918;-85
2022/10/07 16:11:27;;;;;;;;;;;;;;;9.76;100.00;99978.75;4966242;28;19917;-85
2022/10/07 16:13:53;;;;;;;;;;;;;;;9.75;100.00;99977.03;4981016;28;19973;-87
2022/10/07 16:16:19;;;;;;;;;;;;;;;9.81;100.00;99978.56;4966044;28;19918;-87
2022/10/07 16:18:46;;;;;;;;;;;;;;;9.82;100.00;99980.31;4966557;28;19996;-86
2022/10/07 16:21:12;;;;;;;;;;;;;;;9.77;100.00;99983.13;4966035;28;19922;-86
2022/10/07 16:23:39;;;;;;;;;;;;;;;9.86;100.00;99976.66;4979554;28;19945;-91
2022/10/07 16:26:05;;;;;;;;;;;;;;;9.78;100.00;99983.97;4981772;28;19972;-88
2022/10/07 16:31:18;;;;;;;;;;;;;;;9.79;100.00;99991.88;4983687;28;19980;-89
2022/10/07 16:33:43;;;;;;;;;;;;;;;9.78;100.00;99984.88;4983379;28;19972;-88
2022/10/07 16:36:12;;;;;;;;;;;;;;;9.74;100.00;99977.09;4964995;28;19926;-89
2022/10/07 16:38:46;;;;;;;;;;;;;;;9.79;100.00;99977.78;4983695;28;19924;-85
2022/10/07 16:41:11;;;;;;;;;;;;;;;9.76;100.00;99978.75;4960503;28;19922;-87
2022/10/07 16:43:37;;;;;;;;;;;;;;;9.75;100.00;99979.69;4981366;28;19928;-88
2022/10/07 16:46:03;;;;;;;;;;;;;;;9.81;100.00;99984.75;4990450;28;19925;-85
2022/10/07 16:48:29;;;;;;;;;;;;;;;9.80;100.00;99982.16;4973739;28;20348;-88
2022/10/07 16:50:54;;;;;;;;;;;;;;;9.77;100.00;99976.97;4990149;28;19917;-88
2022/10/07 16:53:20;;;;;;;;;;;;;;;9.79;100.00;99975.13;4989474;28;20278;-89
2022/10/07 16:55:45;;;;;;;;;;;;;;;11.95;100.00;99967.25;4972518;28;19918;-89
2022/10/07 16:58:10;;;;;;;;;;;;;;;10.75;100.00;99976.78;4972143;28;19926;-89
2022/10/07 17:00:36;;;;;;;;;;;;;;;10.18;100.00;99971.94;4990059;28;19949;-90
2022/10/07 17:03:01;;;;;;;;;;;;;;;10.03;100.00;99977.78;4989619;28;19933;-89
2022/10/07 17:05:26;;;;;;;;;;;;;;;9.97;100.00;99979.75;4973893;28;20280;-87
2022/10/07 17:07:52;;;;;;;;;;;;;;;9.93;100.00;99972.84;4991232;28;19922;-87
2022/10/07 17:10:17;;;;;;;;;;;;;;;9.95;100.00;99976.28;4974057;28;19918;-88
2022/10/07 17:12:43;;;;;;;;;;;;;;;9.96;100.00;99970.09;4972106;28;19933;-89
2022/10/07 17:15:08;;;;;;;;;;;;;;;9.94;100.00;99971.94;4973175;28;19918;-90
2022/10/07 17:17:34;;;;;;;;;;;;;;;9.92;100.00;99971.09;4974364;28;20320;-89
2022/10/07 17:19:59;;;;;;;;;;;;;;;9.88;100.00;99976.59;4971409;28;20001;-89
2022/10/07 17:22:24;;;;;;;;;;;;;;;9.84;100.00;99977.63;4969916;28;19922;-88
2022/10/07 17:24:50;;;;;;;;;;;;;;;9.83;100.00;99976.75;4974058;28;20361;-87
2022/10/07 17:27:16;;;;;;;;;;;;;;;9.74;100.00;99972.66;4972920;28;19918;-89
2022/10/07 17:29:41;;;;;;;;;;;;;;;9.69;100.00;99976.41;4972034;28;20380;-89
2022/10/07 17:32:08;;;;;;;;;;;;;;;9.58;100.00;99982.06;4973404;28;20424;-89
2022/10/07 17:34:33;;;;;;;;;;;;;;;9.49;100.00;99972.66;4973818;28;20808;-86
2022/10/07 17:36:59;;;;;;;;;;;;;;;9.42;100.00;99985.25;4972455;28;20008;-88
2022/10/07 17:39:25;;;;;;;;;;;;;;;9.41;100.00;99985.28;4973097;28;19980;-89
2022/10/07 17:41:50;;;;;;;;;;;;;;;9.31;100.00;99978.63;4973155;28;19960;-85
2022/10/07 17:44:15;;;;;;;;;;;;;;;9.26;100.00;99984.91;4971761;28;19925;-87
2022/10/07 17:46:41;;;;;;;;;;;;;;;9.22;100.00;99982.41;4990929;28;20377;-89
2022/10/07 17:49:07;;;;;;;;;;;;;;;9.17;100.00;99979.06;4991732;28;19924;-89
2022/10/07 17:51:33;;;;;;;;;;;;;;;9.07;100.00;99978.53;4976743;28;19922;-87
2022/10/07 17:53:59;;;;;;;;;;;;;;;9.04;100.00;99981.28;4978413;28;19975;-91
2022/10/07 17:56:25;;;;;;;;;;;;;;;8.93;100.00;99988.69;4977718;28;20365;-89
2022/10/07 17:58:51;;;;;;;;;;;;;;;8.85;100.00;99981.88;4976140;28;19922;-91
2022/10/07 18:01:18;;;;;;;;;;;;;;;8.82;100.00;99986.41;4978948;28;20415;-89
2022/10/07 18:03:48;;;;;;;;;;;;;;;8.81;100.00;99993.47;4977681;28;20400;-87
2022/10/07 18:06:13;;;;;;;;;;;;;;;8.73;100.00;99993.72;4976233;28;20053;-90
2022/10/07 18:08:40;;;;;;;;;;;;;;;8.71;100.00;99997.31;4975743;28;20009;-87
2022/10/07 18:11:06;;;;;;;;;;;;;;;8.57;100.00;100002.16;4993145;28;20447;-90
2022/10/07 18:16:16;;;;;;;;;;;;;;;8.42;100.00;99995.53;4994647;28;20049;-84
2022/10/07 18:18:42;;;;;;;;;;;;;;;8.22;100.00;99990.84;4976850;28;20016;-90
2022/10/07 18:21:08;;;;;;;;;;;;;;;7.88;100.00;99989.22;4976013;28;19929;-85
2022/10/07 18:23:33;;;;;;;;;;;;;;;7.70;100.00;99993.25;4992127;28;20381;-86
2022/10/07 18:26:17;;;;;;;;;;;;;;;7.60;100.00;99987.34;4977772;28;19922;-86
2022/10/07 18:28:44;;;;;;;;;;;;;;;7.31;100.00;99991.66;4992680;28;19965;-87
2022/10/07 18:31:09;;;;;;;;;;;;;;;7.23;100.00;99990.97;4993972;28;19921;-86
2022/10/07 18:33:36;;;;;;;;;;;;;;;7.10;100.00;99987.81;4994510;28;19918;-90
2022/10/07 18:36:06;;;;;;;;;;;;;;;7.18;100.00;99988.47;4977390;28;19969;-88
2022/10/07 18:38:39;;;;;;;;;;;;;;;7.10;100.00;99982.53;4978217;28;19934;-88
2022/10/07 18:41:05;;;;;;;;;;;;;;;7.10;100.00;99982.53;4995025;28;19921;-88
2022/10/07 18:43:31;;;;;;;;;;;;;;;6.91;100.00;99982.13;4977354;28;19926;-87
2022/10/07 18:46:01;;;;;;;;;;;;;;;6.92;100.00;99989.09;4977129;28;19944;-85
2022/10/07 18:48:33;;;;;;;;;;;;;;;7.11;100.00;99972.84;4976777;28;19928;-89
2022/10/07 18:50:59;;;;;;;;;;;;;;;7.45;100.00;99984.22;4985650;28;19921;-85
2022/10/07 18:53:24;;;;;;;;;;;;;;;7.65;100.00;99980.19;4978213;28;20048;-88
2022/10/07 18:55:50;;;;;;;;;;;;;;;7.59;100.00;99969.78;4977783;28;19957;-91
2022/10/07 18:58:15;;;;;;;;;;;;;;;7.69;100.00;99975.69;4992964;28;20365;-89
2022/10/07 19:00:41;;;;;;;;;;;;;;;7.70;100.00;99977.41;4988918;28;19917;-87
2022/10/07 19:03:06;;;;;;;;;;;;;;;7.80;100.00;99969.22;4977789;28;20012;-89
2022/10/07 19:05:38;;;;;;;;;;;;;;;7.86;100.00;99973.44;4967959;28;20505;-85
2022/10/07 19:08:05;;;;;;;;;;;;;;;7.99;100.00;99969.53;4992009;28;19976;-85
2022/10/07 19:10:35;;;;;;;;;;;;;;;7.98;100.00;99972.22;4991466;28;19954;-89
2022/10/07 19:15:44;;;;;;;;;;;;;;;8.22;100.00;99967.09;4991104;28;19933;-90
2022/10/07 19:18:09;;;;;;;;;;;;;;;8.23;100.00;99964.41;4975618;28;19926;-88
2022/10/07 19:20:35;;;;;;;;;;;;;;;8.28;100.00;99965.16;4972936;28;19928;-89
2022/10/07 19:23:00;;;;;;;;;;;;;;;8.30;100.00;99970.41;4975565;28;19933;-88
2022/10/07 19:28:15;;;;;;;;;;;;;;;8.58;100.00;99962.50;4992285;28;19933;-90